sensor_id;sensor_type;location;lat;lon;timestamp;P1;durP1;ratioP1;P2;durP2;ratioP2
8626;SDS011;4351;51.422;6.794;2022-12-17T00:02:07;85.97;;;32.13;;
8626;SDS011;4351;51.422;6.794;2022-12-17T00:04:52;94.33;;;32.17;;
8626;SDS011;4351;51.422;6.794;2022-12-17T00:07:56;86.37;;;31.77;;
8626;SDS011;4351;51.422;6.794;2022-12-17T00:10:41;85.77;;;32.40;;
8626;SDS011;4351;51.422;6.794;2022-12-17T00:13:27;95.17;;;34.23;;
8626;SDS011;4351;51.422;6.794;2022-12-17T00:16:14;89.47;;;34.63;;
8626;SDS011;4351;51.422;6.794;2022-12-17T00:19:00;91.73;;;33.03;;
8626;SDS011;4351;51.422;6.794;2022-12-17T00:21:45;97.17;;;36.43;;
8626;SDS011;4351;51.422;6.794;2022-12-17T00:24:32;92.87;;;35.30;;
8626;SDS011;4351;51.422;6.794;2022-12-17T00:27:17;99.40;;;34.77;;
8626;SDS011;4351;51.422;6.794;2022-12-17T00:30:04;97.87;;;34.97;;
8626;SDS011;4351;51.422;6.794;2022-12-17T00:32:50;85.73;;;33.20;;
8626;SDS011;4351;51.422;6.794;2022-12-17T00:35:36;94.83;;;36.07;;
8626;SDS011;4351;51.422;6.794;2022-12-17T00:38:22;103.03;;;36.30;;
8626;SDS011;4351;51.422;6.794;2022-12-17T00:41:08;95.87;;;34.57;;
8626;SDS011;4351;51.422;6.794;2022-12-17T00:43:54;101.50;;;34.03;;
8626;SDS011;4351;51.422;6.794;2022-12-17T00:46:40;94.07;;;34.47;;
8626;SDS011;4351;51.422;6.794;2022-12-17T00:49:25;91.30;;;33.73;;
8626;SDS011;4351;51.422;6.794;2022-12-17T00:52:11;96.30;;;35.03;;
8626;SDS011;4351;51.422;6.794;2022-12-17T00:54:56;87.37;;;34.07;;
8626;SDS011;4351;51.422;6.794;2022-12-17T00:57:43;94.07;;;33.70;;
8626;SDS011;4351;51.422;6.794;2022-12-17T01:00:28;90.70;;;33.10;;
8626;SDS011;4351;51.422;6.794;2022-12-17T01:03:13;97.20;;;35.87;;
8626;SDS011;4351;51.422;6.794;2022-12-17T01:06:03;91.00;;;33.90;;
8626;SDS011;4351;51.422;6.794;2022-12-17T01:08:48;98.13;;;34.30;;
8626;SDS011;4351;51.422;6.794;2022-12-17T01:11:35;86.87;;;32.00;;
8626;SDS011;4351;51.422;6.794;2022-12-17T01:14:23;88.57;;;31.63;;
8626;SDS011;4351;51.422;6.794;2022-12-17T01:17:09;84.07;;;30.90;;
8626;SDS011;4351;51.422;6.794;2022-12-17T01:19:56;85.50;;;32.23;;
8626;SDS011;4351;51.422;6.794;2022-12-17T01:22:41;79.63;;;30.70;;
8626;SDS011;4351;51.422;6.794;2022-12-17T01:25:29;86.80;;;31.27;;
8626;SDS011;4351;51.422;6.794;2022-12-17T01:28:19;88.70;;;31.03;;
8626;SDS011;4351;51.422;6.794;2022-12-17T01:31:07;90.87;;;32.13;;
8626;SDS011;4351;51.422;6.794;2022-12-17T01:33:59;82.83;;;31.33;;
8626;SDS011;4351;51.422;6.794;2022-12-17T01:36:46;88.47;;;31.13;;
8626;SDS011;4351;51.422;6.794;2022-12-17T01:39:31;89.67;;;31.87;;
8626;SDS011;4351;51.422;6.794;2022-12-17T01:42:16;91.50;;;31.33;;
8626;SDS011;4351;51.422;6.794;2022-12-17T01:45:03;93.50;;;31.77;;
8626;SDS011;4351;51.422;6.794;2022-12-17T01:47:54;85.53;;;30.67;;
8626;SDS011;4351;51.422;6.794;2022-12-17T01:50:43;84.23;;;29.23;;
8626;SDS011;4351;51.422;6.794;2022-12-17T01:53:31;72.57;;;27.67;;
8626;SDS011;4351;51.422;6.794;2022-12-17T01:56:27;68.63;;;25.40;;
8626;SDS011;4351;51.422;6.794;2022-12-17T01:59:13;67.73;;;24.97;;
8626;SDS011;4351;51.422;6.794;2022-12-17T02:01:58;73.50;;;25.87;;
8626;SDS011;4351;51.422;6.794;2022-12-17T02:04:45;78.83;;;26.63;;
8626;SDS011;4351;51.422;6.794;2022-12-17T02:07:34;72.27;;;26.60;;
8626;SDS011;4351;51.422;6.794;2022-12-17T02:10:30;75.07;;;26.57;;
8626;SDS011;4351;51.422;6.794;2022-12-17T02:13:23;82.23;;;27.67;;
8626;SDS011;4351;51.422;6.794;2022-12-17T02:16:17;76.57;;;27.67;;
8626;SDS011;4351;51.422;6.794;2022-12-17T02:19:08;72.37;;;26.37;;
8626;SDS011;4351;51.422;6.794;2022-12-17T02:22:19;70.97;;;27.13;;
8626;SDS011;4351;51.422;6.794;2022-12-17T02:25:12;73.00;;;26.17;;
8626;SDS011;4351;51.422;6.794;2022-12-17T02:28:02;72.10;;;27.60;;
8626;SDS011;4351;51.422;6.794;2022-12-17T02:30:48;71.60;;;26.67;;
8626;SDS011;4351;51.422;6.794;2022-12-17T02:33:35;76.67;;;27.67;;
8626;SDS011;4351;51.422;6.794;2022-12-17T02:36:21;67.77;;;25.33;;
8626;SDS011;4351;51.422;6.794;2022-12-17T02:39:06;71.30;;;24.73;;
8626;SDS011;4351;51.422;6.794;2022-12-17T02:41:52;69.77;;;25.87;;
8626;SDS011;4351;51.422;6.794;2022-12-17T02:44:42;72.33;;;26.80;;
8626;SDS011;4351;51.422;6.794;2022-12-17T02:47:27;67.03;;;26.03;;
8626;SDS011;4351;51.422;6.794;2022-12-17T02:50:13;71.23;;;26.23;;
8626;SDS011;4351;51.422;6.794;2022-12-17T02:52:59;72.23;;;26.87;;
8626;SDS011;4351;51.422;6.794;2022-12-17T02:55:46;73.53;;;26.70;;
8626;SDS011;4351;51.422;6.794;2022-12-17T02:58:34;74.47;;;26.33;;
8626;SDS011;4351;51.422;6.794;2022-12-17T03:01:21;75.00;;;27.03;;
8626;SDS011;4351;51.422;6.794;2022-12-17T03:04:06;70.73;;;25.43;;
8626;SDS011;4351;51.422;6.794;2022-12-17T03:07:04;71.73;;;25.27;;
8626;SDS011;4351;51.422;6.794;2022-12-17T03:09:50;65.93;;;24.20;;
8626;SDS011;4351;51.422;6.794;2022-12-17T03:12:40;63.90;;;23.60;;
8626;SDS011;4351;51.422;6.794;2022-12-17T03:15:25;72.07;;;26.17;;
8626;SDS011;4351;51.422;6.794;2022-12-17T03:18:11;82.57;;;26.77;;
8626;SDS011;4351;51.422;6.794;2022-12-17T03:20:57;78.43;;;25.50;;
8626;SDS011;4351;51.422;6.794;2022-12-17T03:23:41;65.63;;;24.60;;
8626;SDS011;4351;51.422;6.794;2022-12-17T03:26:27;75.37;;;26.53;;
8626;SDS011;4351;51.422;6.794;2022-12-17T03:29:12;71.77;;;24.67;;
8626;SDS011;4351;51.422;6.794;2022-12-17T03:31:57;73.47;;;25.20;;
8626;SDS011;4351;51.422;6.794;2022-12-17T03:34:44;82.77;;;26.60;;
8626;SDS011;4351;51.422;6.794;2022-12-17T03:37:29;71.30;;;25.37;;
8626;SDS011;4351;51.422;6.794;2022-12-17T03:40:15;78.40;;;25.53;;
8626;SDS011;4351;51.422;6.794;2022-12-17T03:43:04;79.33;;;25.70;;
8626;SDS011;4351;51.422;6.794;2022-12-17T03:45:50;74.77;;;25.93;;
8626;SDS011;4351;51.422;6.794;2022-12-17T03:48:37;75.73;;;25.50;;
8626;SDS011;4351;51.422;6.794;2022-12-17T03:51:24;74.83;;;25.30;;
8626;SDS011;4351;51.422;6.794;2022-12-17T03:54:09;74.37;;;23.97;;
8626;SDS011;4351;51.422;6.794;2022-12-17T03:56:54;70.73;;;24.30;;
8626;SDS011;4351;51.422;6.794;2022-12-17T03:59:41;66.97;;;24.50;;
8626;SDS011;4351;51.422;6.794;2022-12-17T04:02:37;73.20;;;25.33;;
8626;SDS011;4351;51.422;6.794;2022-12-17T04:05:24;68.57;;;24.00;;
8626;SDS011;4351;51.422;6.794;2022-12-17T04:08:13;76.27;;;25.57;;
8626;SDS011;4351;51.422;6.794;2022-12-17T04:10:58;69.33;;;25.10;;
8626;SDS011;4351;51.422;6.794;2022-12-17T04:13:45;65.43;;;24.40;;
8626;SDS011;4351;51.422;6.794;2022-12-17T04:16:30;63.13;;;23.77;;
8626;SDS011;4351;51.422;6.794;2022-12-17T04:19:15;68.20;;;24.90;;
8626;SDS011;4351;51.422;6.794;2022-12-17T04:22:00;58.33;;;22.77;;
8626;SDS011;4351;51.422;6.794;2022-12-17T04:24:47;59.53;;;24.03;;
8626;SDS011;4351;51.422;6.794;2022-12-17T04:27:32;58.80;;;23.50;;
8626;SDS011;4351;51.422;6.794;2022-12-17T04:30:17;65.93;;;23.80;;
8626;SDS011;4351;51.422;6.794;2022-12-17T04:33:02;62.77;;;22.20;;
8626;SDS011;4351;51.422;6.794;2022-12-17T04:35:48;61.03;;;22.80;;
8626;SDS011;4351;51.422;6.794;2022-12-17T04:38:33;58.27;;;22.93;;
8626;SDS011;4351;51.422;6.794;2022-12-17T04:41:20;59.60;;;23.77;;
8626;SDS011;4351;51.422;6.794;2022-12-17T04:44:06;57.80;;;22.93;;
8626;SDS011;4351;51.422;6.794;2022-12-17T04:46:51;61.57;;;23.30;;
8626;SDS011;4351;51.422;6.794;2022-12-17T04:49:36;51.63;;;22.03;;
8626;SDS011;4351;51.422;6.794;2022-12-17T04:52:21;56.70;;;23.10;;
8626;SDS011;4351;51.422;6.794;2022-12-17T04:55:07;54.43;;;21.27;;
8626;SDS011;4351;51.422;6.794;2022-12-17T04:57:59;60.83;;;22.63;;
8626;SDS011;4351;51.422;6.794;2022-12-17T05:00:45;56.10;;;22.43;;
8626;SDS011;4351;51.422;6.794;2022-12-17T05:03:31;58.67;;;23.07;;
8626;SDS011;4351;51.422;6.794;2022-12-17T05:06:16;55.07;;;21.57;;
8626;SDS011;4351;51.422;6.794;2022-12-17T05:09:01;54.70;;;21.83;;
8626;SDS011;4351;51.422;6.794;2022-12-17T05:11:47;54.03;;;21.83;;
8626;SDS011;4351;51.422;6.794;2022-12-17T05:14:48;57.57;;;22.67;;
8626;SDS011;4351;51.422;6.794;2022-12-17T05:17:34;54.87;;;22.77;;
8626;SDS011;4351;51.422;6.794;2022-12-17T05:20:19;54.03;;;22.13;;
8626;SDS011;4351;51.422;6.794;2022-12-17T05:23:04;52.30;;;22.97;;
8626;SDS011;4351;51.422;6.794;2022-12-17T05:25:54;58.67;;;23.53;;
8626;SDS011;4351;51.422;6.794;2022-12-17T05:29:01;60.37;;;22.87;;
8626;SDS011;4351;51.422;6.794;2022-12-17T05:31:48;55.90;;;22.77;;
8626;SDS011;4351;51.422;6.794;2022-12-17T05:34:35;53.43;;;22.57;;
8626;SDS011;4351;51.422;6.794;2022-12-17T05:37:22;49.37;;;22.50;;
8626;SDS011;4351;51.422;6.794;2022-12-17T05:40:08;51.63;;;22.83;;
8626;SDS011;4351;51.422;6.794;2022-12-17T05:42:55;53.07;;;22.50;;
8626;SDS011;4351;51.422;6.794;2022-12-17T05:45:43;55.90;;;24.30;;
8626;SDS011;4351;51.422;6.794;2022-12-17T05:48:32;57.43;;;23.33;;
8626;SDS011;4351;51.422;6.794;2022-12-17T05:51:18;56.90;;;23.67;;
8626;SDS011;4351;51.422;6.794;2022-12-17T05:54:04;51.10;;;22.03;;
8626;SDS011;4351;51.422;6.794;2022-12-17T05:56:50;50.50;;;23.07;;
8626;SDS011;4351;51.422;6.794;2022-12-17T05:59:36;50.73;;;21.60;;
8626;SDS011;4351;51.422;6.794;2022-12-17T06:02:21;53.57;;;23.67;;
8626;SDS011;4351;51.422;6.794;2022-12-17T06:05:08;54.67;;;23.43;;
8626;SDS011;4351;51.422;6.794;2022-12-17T06:08:00;57.30;;;22.87;;
8626;SDS011;4351;51.422;6.794;2022-12-17T06:10:46;53.60;;;23.27;;
8626;SDS011;4351;51.422;6.794;2022-12-17T06:13:32;58.67;;;23.63;;
8626;SDS011;4351;51.422;6.794;2022-12-17T06:16:18;58.13;;;24.70;;
8626;SDS011;4351;51.422;6.794;2022-12-17T06:19:01;61.57;;;25.13;;
8626;SDS011;4351;51.422;6.794;2022-12-17T06:21:49;54.40;;;23.73;;
8626;SDS011;4351;51.422;6.794;2022-12-17T06:24:31;55.33;;;23.40;;
8626;SDS011;4351;51.422;6.794;2022-12-17T06:27:16;55.20;;;24.23;;
8626;SDS011;4351;51.422;6.794;2022-12-17T06:30:02;55.43;;;24.60;;
8626;SDS011;4351;51.422;6.794;2022-12-17T06:32:48;55.43;;;24.30;;
8626;SDS011;4351;51.422;6.794;2022-12-17T06:35:33;63.67;;;24.10;;
8626;SDS011;4351;51.422;6.794;2022-12-17T06:38:20;59.80;;;25.27;;
8626;SDS011;4351;51.422;6.794;2022-12-17T06:41:05;55.03;;;23.70;;
8626;SDS011;4351;51.422;6.794;2022-12-17T06:43:50;62.93;;;24.90;;
8626;SDS011;4351;51.422;6.794;2022-12-17T06:46:35;55.33;;;21.90;;
8626;SDS011;4351;51.422;6.794;2022-12-17T06:49:21;63.87;;;24.03;;
8626;SDS011;4351;51.422;6.794;2022-12-17T06:52:11;60.30;;;23.20;;
8626;SDS011;4351;51.422;6.794;2022-12-17T06:54:58;61.53;;;23.60;;
8626;SDS011;4351;51.422;6.794;2022-12-17T06:57:43;61.73;;;24.00;;
8626;SDS011;4351;51.422;6.794;2022-12-17T07:00:28;60.50;;;22.57;;
8626;SDS011;4351;51.422;6.794;2022-12-17T07:03:16;62.50;;;23.57;;
8626;SDS011;4351;51.422;6.794;2022-12-17T07:06:10;67.60;;;26.80;;
8626;SDS011;4351;51.422;6.794;2022-12-17T07:08:56;61.67;;;23.20;;
8626;SDS011;4351;51.422;6.794;2022-12-17T07:11:42;53.30;;;22.07;;
8626;SDS011;4351;51.422;6.794;2022-12-17T07:14:28;67.23;;;22.90;;
8626;SDS011;4351;51.422;6.794;2022-12-17T07:17:18;54.03;;;21.70;;
8626;SDS011;4351;51.422;6.794;2022-12-17T07:20:04;64.33;;;23.07;;
8626;SDS011;4351;51.422;6.794;2022-12-17T07:22:53;55.90;;;22.07;;
8626;SDS011;4351;51.422;6.794;2022-12-17T07:25:41;56.90;;;21.67;;
8626;SDS011;4351;51.422;6.794;2022-12-17T07:28:27;53.27;;;19.97;;
8626;SDS011;4351;51.422;6.794;2022-12-17T07:31:17;52.37;;;21.13;;
8626;SDS011;4351;51.422;6.794;2022-12-17T07:34:02;53.47;;;22.77;;
8626;SDS011;4351;51.422;6.794;2022-12-17T07:36:47;55.00;;;23.40;;
8626;SDS011;4351;51.422;6.794;2022-12-17T07:39:35;48.73;;;20.10;;
8626;SDS011;4351;51.422;6.794;2022-12-17T07:42:20;45.57;;;18.40;;
8626;SDS011;4351;51.422;6.794;2022-12-17T07:45:08;44.10;;;18.50;;
8626;SDS011;4351;51.422;6.794;2022-12-17T07:47:54;48.03;;;18.10;;
8626;SDS011;4351;51.422;6.794;2022-12-17T07:50:39;41.87;;;18.87;;
8626;SDS011;4351;51.422;6.794;2022-12-17T07:53:25;41.57;;;18.30;;
8626;SDS011;4351;51.422;6.794;2022-12-17T07:56:10;44.83;;;18.20;;
8626;SDS011;4351;51.422;6.794;2022-12-17T07:58:55;46.17;;;19.10;;
8626;SDS011;4351;51.422;6.794;2022-12-17T08:01:42;52.80;;;19.43;;
8626;SDS011;4351;51.422;6.794;2022-12-17T08:04:28;46.07;;;20.07;;
8626;SDS011;4351;51.422;6.794;2022-12-17T08:07:14;45.70;;;18.67;;
8626;SDS011;4351;51.422;6.794;2022-12-17T08:09:56;49.57;;;18.50;;
8626;SDS011;4351;51.422;6.794;2022-12-17T08:12:41;52.03;;;19.47;;
8626;SDS011;4351;51.422;6.794;2022-12-17T08:15:40;51.70;;;20.97;;
8626;SDS011;4351;51.422;6.794;2022-12-17T08:18:27;48.63;;;19.33;;
8626;SDS011;4351;51.422;6.794;2022-12-17T08:21:21;51.83;;;19.67;;
8626;SDS011;4351;51.422;6.794;2022-12-17T08:24:06;50.17;;;19.23;;
8626;SDS011;4351;51.422;6.794;2022-12-17T08:26:51;52.20;;;18.73;;
8626;SDS011;4351;51.422;6.794;2022-12-17T08:29:36;55.50;;;20.73;;
8626;SDS011;4351;51.422;6.794;2022-12-17T08:32:22;51.37;;;19.90;;
8626;SDS011;4351;51.422;6.794;2022-12-17T08:35:09;46.93;;;18.90;;
8626;SDS011;4351;51.422;6.794;2022-12-17T08:37:59;52.50;;;20.30;;
8626;SDS011;4351;51.422;6.794;2022-12-17T08:40:45;49.60;;;18.87;;
8626;SDS011;4351;51.422;6.794;2022-12-17T08:43:31;46.13;;;16.80;;
8626;SDS011;4351;51.422;6.794;2022-12-17T08:46:16;48.10;;;18.10;;
8626;SDS011;4351;51.422;6.794;2022-12-17T08:49:01;44.03;;;17.50;;
8626;SDS011;4351;51.422;6.794;2022-12-17T08:51:48;41.77;;;16.93;;
8626;SDS011;4351;51.422;6.794;2022-12-17T08:54:33;43.07;;;17.10;;
8626;SDS011;4351;51.422;6.794;2022-12-17T08:57:19;49.17;;;18.97;;
8626;SDS011;4351;51.422;6.794;2022-12-17T09:00:07;49.80;;;19.57;;
8626;SDS011;4351;51.422;6.794;2022-12-17T09:02:55;51.10;;;22.80;;
8626;SDS011;4351;51.422;6.794;2022-12-17T09:05:41;48.90;;;21.47;;
8626;SDS011;4351;51.422;6.794;2022-12-17T09:08:41;46.80;;;20.77;;
8626;SDS011;4351;51.422;6.794;2022-12-17T09:11:27;42.93;;;18.57;;
8626;SDS011;4351;51.422;6.794;2022-12-17T09:14:12;38.67;;;16.27;;
8626;SDS011;4351;51.422;6.794;2022-12-17T09:16:58;33.73;;;15.67;;
8626;SDS011;4351;51.422;6.794;2022-12-17T09:19:43;33.30;;;15.30;;
8626;SDS011;4351;51.422;6.794;2022-12-17T09:22:28;40.43;;;19.37;;
8626;SDS011;4351;51.422;6.794;2022-12-17T09:25:15;43.43;;;18.57;;
8626;SDS011;4351;51.422;6.794;2022-12-17T09:28:01;35.27;;;14.40;;
8626;SDS011;4351;51.422;6.794;2022-12-17T09:30:47;40.87;;;16.57;;
8626;SDS011;4351;51.422;6.794;2022-12-17T09:33:33;40.73;;;15.87;;
8626;SDS011;4351;51.422;6.794;2022-12-17T09:36:18;38.50;;;15.90;;
8626;SDS011;4351;51.422;6.794;2022-12-17T09:39:04;34.13;;;14.57;;
8626;SDS011;4351;51.422;6.794;2022-12-17T09:41:52;35.03;;;15.10;;
8626;SDS011;4351;51.422;6.794;2022-12-17T09:44:46;33.87;;;14.47;;
8626;SDS011;4351;51.422;6.794;2022-12-17T09:47:38;34.83;;;14.70;;
8626;SDS011;4351;51.422;6.794;2022-12-17T09:50:30;34.07;;;13.20;;
8626;SDS011;4351;51.422;6.794;2022-12-17T09:53:18;35.27;;;14.57;;
8626;SDS011;4351;51.422;6.794;2022-12-17T09:56:06;31.57;;;13.77;;
8626;SDS011;4351;51.422;6.794;2022-12-17T09:58:57;33.17;;;14.97;;
8626;SDS011;4351;51.422;6.794;2022-12-17T10:01:43;32.73;;;14.17;;
8626;SDS011;4351;51.422;6.794;2022-12-17T10:04:31;33.97;;;14.53;;
8626;SDS011;4351;51.422;6.794;2022-12-17T10:07:19;36.43;;;15.10;;
8626;SDS011;4351;51.422;6.794;2022-12-17T10:10:14;32.87;;;13.70;;
8626;SDS011;4351;51.422;6.794;2022-12-17T10:13:06;38.67;;;16.53;;
8626;SDS011;4351;51.422;6.794;2022-12-17T10:15:56;40.83;;;18.70;;
8626;SDS011;4351;51.422;6.794;2022-12-17T10:18:42;38.80;;;17.00;;
8626;SDS011;4351;51.422;6.794;2022-12-17T10:21:28;33.20;;;15.83;;
8626;SDS011;4351;51.422;6.794;2022-12-17T10:24:14;37.30;;;16.70;;
8626;SDS011;4351;51.422;6.794;2022-12-17T10:27:06;29.73;;;15.03;;
8626;SDS011;4351;51.422;6.794;2022-12-17T10:29:53;29.53;;;13.23;;
8626;SDS011;4351;51.422;6.794;2022-12-17T10:32:40;32.10;;;14.07;;
8626;SDS011;4351;51.422;6.794;2022-12-17T10:35:26;28.93;;;13.57;;
8626;SDS011;4351;51.422;6.794;2022-12-17T10:38:20;32.87;;;14.60;;
8626;SDS011;4351;51.422;6.794;2022-12-17T10:41:04;32.53;;;15.40;;
8626;SDS011;4351;51.422;6.794;2022-12-17T10:44:18;31.50;;;14.80;;
8626;SDS011;4351;51.422;6.794;2022-12-17T10:47:09;37.80;;;15.23;;
8626;SDS011;4351;51.422;6.794;2022-12-17T10:50:00;34.83;;;16.37;;
8626;SDS011;4351;51.422;6.794;2022-12-17T10:52:48;36.20;;;15.90;;
8626;SDS011;4351;51.422;6.794;2022-12-17T10:55:33;32.20;;;15.10;;
8626;SDS011;4351;51.422;6.794;2022-12-17T10:58:20;32.67;;;14.70;;
8626;SDS011;4351;51.422;6.794;2022-12-17T11:01:10;34.33;;;15.17;;
8626;SDS011;4351;51.422;6.794;2022-12-17T11:04:02;37.20;;;16.93;;
8626;SDS011;4351;51.422;6.794;2022-12-17T11:06:49;41.07;;;17.63;;
8626;SDS011;4351;51.422;6.794;2022-12-17T11:09:39;43.40;;;18.83;;
8626;SDS011;4351;51.422;6.794;2022-12-17T11:12:35;40.93;;;20.10;;
8626;SDS011;4351;51.422;6.794;2022-12-17T11:15:21;33.67;;;14.20;;
8626;SDS011;4351;51.422;6.794;2022-12-17T11:18:11;31.93;;;14.70;;
8626;SDS011;4351;51.422;6.794;2022-12-17T11:21:02;32.57;;;14.90;;
8626;SDS011;4351;51.422;6.794;2022-12-17T11:23:53;34.03;;;15.00;;
8626;SDS011;4351;51.422;6.794;2022-12-17T11:26:48;37.87;;;16.30;;
8626;SDS011;4351;51.422;6.794;2022-12-17T11:29:37;37.03;;;16.73;;
8626;SDS011;4351;51.422;6.794;2022-12-17T11:32:29;39.80;;;16.97;;
8626;SDS011;4351;51.422;6.794;2022-12-17T11:35:27;35.07;;;15.57;;
8626;SDS011;4351;51.422;6.794;2022-12-17T11:38:20;43.63;;;15.87;;
8626;SDS011;4351;51.422;6.794;2022-12-17T11:41:13;36.63;;;16.20;;
8626;SDS011;4351;51.422;6.794;2022-12-17T11:44:04;33.40;;;15.63;;
8626;SDS011;4351;51.422;6.794;2022-12-17T11:47:02;35.43;;;16.23;;
8626;SDS011;4351;51.422;6.794;2022-12-17T11:50:01;36.93;;;16.27;;
8626;SDS011;4351;51.422;6.794;2022-12-17T11:52:58;40.13;;;17.53;;
8626;SDS011;4351;51.422;6.794;2022-12-17T11:55:55;40.93;;;17.20;;
8626;SDS011;4351;51.422;6.794;2022-12-17T11:58:49;36.77;;;17.50;;
8626;SDS011;4351;51.422;6.794;2022-12-17T12:01:38;42.77;;;18.27;;
8626;SDS011;4351;51.422;6.794;2022-12-17T12:04:37;39.13;;;17.83;;
8626;SDS011;4351;51.422;6.794;2022-12-17T12:07:39;37.53;;;18.10;;
8626;SDS011;4351;51.422;6.794;2022-12-17T12:10:38;38.43;;;17.87;;
8626;SDS011;4351;51.422;6.794;2022-12-17T12:13:32;37.50;;;17.20;;
8626;SDS011;4351;51.422;6.794;2022-12-17T12:16:27;39.77;;;17.50;;
8626;SDS011;4351;51.422;6.794;2022-12-17T12:19:17;39.73;;;16.97;;
8626;SDS011;4351;51.422;6.794;2022-12-17T12:22:12;43.70;;;18.53;;
8626;SDS011;4351;51.422;6.794;2022-12-17T12:25:06;41.00;;;17.23;;
8626;SDS011;4351;51.422;6.794;2022-12-17T12:28:05;35.93;;;17.70;;
8626;SDS011;4351;51.422;6.794;2022-12-17T12:30:59;41.10;;;18.23;;
8626;SDS011;4351;51.422;6.794;2022-12-17T12:33:56;41.23;;;18.57;;
8626;SDS011;4351;51.422;6.794;2022-12-17T12:36:45;37.17;;;17.53;;
8626;SDS011;4351;51.422;6.794;2022-12-17T12:39:34;39.90;;;18.20;;
8626;SDS011;4351;51.422;6.794;2022-12-17T12:42:25;39.90;;;16.53;;
8626;SDS011;4351;51.422;6.794;2022-12-17T12:45:20;37.77;;;17.17;;
8626;SDS011;4351;51.422;6.794;2022-12-17T12:48:17;40.67;;;16.90;;
8626;SDS011;4351;51.422;6.794;2022-12-17T12:51:14;35.53;;;16.60;;
8626;SDS011;4351;51.422;6.794;2022-12-17T12:54:23;37.53;;;16.43;;
8626;SDS011;4351;51.422;6.794;2022-12-17T13:00:31;36.17;;;16.53;;
8626;SDS011;4351;51.422;6.794;2022-12-17T13:03:25;40.40;;;17.80;;
8626;SDS011;4351;51.422;6.794;2022-12-17T13:09:21;44.67;;;20.30;;
8626;SDS011;4351;51.422;6.794;2022-12-17T13:12:17;40.07;;;18.40;;
8626;SDS011;4351;51.422;6.794;2022-12-17T13:14:52;37.83;;;18.77;;
8626;SDS011;4351;51.422;6.794;2022-12-17T13:17:29;38.97;;;18.60;;
8626;SDS011;4351;51.422;6.794;2022-12-17T13:20:03;38.10;;;18.13;;
8626;SDS011;4351;51.422;6.794;2022-12-17T13:22:50;41.63;;;19.23;;
8626;SDS011;4351;51.422;6.794;2022-12-17T13:25:21;41.23;;;19.43;;
8626;SDS011;4351;51.422;6.794;2022-12-17T13:27:50;42.57;;;18.87;;
8626;SDS011;4351;51.422;6.794;2022-12-17T13:30:19;42.53;;;20.10;;
8626;SDS011;4351;51.422;6.794;2022-12-17T13:32:52;38.07;;;18.50;;
8626;SDS011;4351;51.422;6.794;2022-12-17T13:35:28;40.23;;;18.33;;
8626;SDS011;4351;51.422;6.794;2022-12-17T13:38:08;43.47;;;20.73;;
8626;SDS011;4351;51.422;6.794;2022-12-17T13:40:54;44.10;;;21.77;;
8626;SDS011;4351;51.422;6.794;2022-12-17T13:43:38;48.97;;;23.57;;
8626;SDS011;4351;51.422;6.794;2022-12-17T13:46:17;42.60;;;19.70;;
8626;SDS011;4351;51.422;6.794;2022-12-17T13:48:55;41.53;;;19.80;;
8626;SDS011;4351;51.422;6.794;2022-12-17T13:51:31;40.37;;;19.23;;
8626;SDS011;4351;51.422;6.794;2022-12-17T13:54:11;42.27;;;19.10;;
8626;SDS011;4351;51.422;6.794;2022-12-17T13:56:53;39.40;;;18.83;;
8626;SDS011;4351;51.422;6.794;2022-12-17T13:59:35;41.20;;;19.03;;
8626;SDS011;4351;51.422;6.794;2022-12-17T14:02:20;40.63;;;19.10;;
8626;SDS011;4351;51.422;6.794;2022-12-17T14:04:58;45.70;;;19.43;;
8626;SDS011;4351;51.422;6.794;2022-12-17T14:07:39;40.60;;;20.07;;
8626;SDS011;4351;51.422;6.794;2022-12-17T14:10:22;42.20;;;21.27;;
8626;SDS011;4351;51.422;6.794;2022-12-17T14:12:59;48.53;;;22.90;;
8626;SDS011;4351;51.422;6.794;2022-12-17T14:15:35;45.30;;;22.37;;
8626;SDS011;4351;51.422;6.794;2022-12-17T14:18:18;43.60;;;19.97;;
8626;SDS011;4351;51.422;6.794;2022-12-17T14:21:00;39.47;;;19.97;;
8626;SDS011;4351;51.422;6.794;2022-12-17T14:23:34;42.83;;;20.10;;
8626;SDS011;4351;51.422;6.794;2022-12-17T14:26:19;43.07;;;20.07;;
8626;SDS011;4351;51.422;6.794;2022-12-17T14:28:49;41.73;;;21.20;;
8626;SDS011;4351;51.422;6.794;2022-12-17T14:31:27;42.07;;;19.87;;
8626;SDS011;4351;51.422;6.794;2022-12-17T14:34:00;42.33;;;20.43;;
8626;SDS011;4351;51.422;6.794;2022-12-17T14:36:37;36.30;;;18.83;;
8626;SDS011;4351;51.422;6.794;2022-12-17T14:39:14;38.73;;;19.80;;
8626;SDS011;4351;51.422;6.794;2022-12-17T14:41:46;44.07;;;20.87;;
8626;SDS011;4351;51.422;6.794;2022-12-17T14:44:32;38.67;;;19.67;;
8626;SDS011;4351;51.422;6.794;2022-12-17T14:47:11;38.57;;;20.17;;
8626;SDS011;4351;51.422;6.794;2022-12-17T14:49:50;40.37;;;19.33;;
8626;SDS011;4351;51.422;6.794;2022-12-17T14:52:29;40.43;;;20.33;;
8626;SDS011;4351;51.422;6.794;2022-12-17T14:55:23;40.73;;;20.50;;
8626;SDS011;4351;51.422;6.794;2022-12-17T14:58:13;41.40;;;20.20;;
8626;SDS011;4351;51.422;6.794;2022-12-17T15:00:44;39.47;;;19.93;;
8626;SDS011;4351;51.422;6.794;2022-12-17T15:03:19;40.57;;;19.83;;
8626;SDS011;4351;51.422;6.794;2022-12-17T15:05:54;41.13;;;20.17;;
8626;SDS011;4351;51.422;6.794;2022-12-17T15:08:25;42.07;;;20.77;;
8626;SDS011;4351;51.422;6.794;2022-12-17T15:10:58;38.60;;;19.73;;
8626;SDS011;4351;51.422;6.794;2022-12-17T15:13:28;38.70;;;20.37;;
8626;SDS011;4351;51.422;6.794;2022-12-17T15:16:00;41.77;;;21.13;;
8626;SDS011;4351;51.422;6.794;2022-12-17T15:18:28;43.00;;;21.77;;
8626;SDS011;4351;51.422;6.794;2022-12-17T15:20:56;41.53;;;20.97;;
8626;SDS011;4351;51.422;6.794;2022-12-17T15:23:24;39.33;;;20.77;;
8626;SDS011;4351;51.422;6.794;2022-12-17T15:25:53;41.57;;;21.07;;
8626;SDS011;4351;51.422;6.794;2022-12-17T15:28:21;38.90;;;20.53;;
8626;SDS011;4351;51.422;6.794;2022-12-17T15:30:54;44.13;;;21.63;;
8626;SDS011;4351;51.422;6.794;2022-12-17T15:33:22;39.20;;;21.17;;
8626;SDS011;4351;51.422;6.794;2022-12-17T15:35:50;35.63;;;19.30;;
8626;SDS011;4351;51.422;6.794;2022-12-17T15:38:18;41.70;;;20.50;;
8626;SDS011;4351;51.422;6.794;2022-12-17T15:40:46;45.53;;;21.87;;
8626;SDS011;4351;51.422;6.794;2022-12-17T15:43:21;40.73;;;21.33;;
8626;SDS011;4351;51.422;6.794;2022-12-17T15:45:50;39.97;;;21.97;;
8626;SDS011;4351;51.422;6.794;2022-12-17T15:48:21;35.93;;;19.50;;
8626;SDS011;4351;51.422;6.794;2022-12-17T15:50:52;38.77;;;18.80;;
8626;SDS011;4351;51.422;6.794;2022-12-17T15:53:20;40.67;;;19.80;;
8626;SDS011;4351;51.422;6.794;2022-12-17T15:55:48;40.27;;;20.43;;
8626;SDS011;4351;51.422;6.794;2022-12-17T15:58:16;37.97;;;19.40;;
8626;SDS011;4351;51.422;6.794;2022-12-17T16:00:44;36.53;;;18.03;;
8626;SDS011;4351;51.422;6.794;2022-12-17T16:03:12;39.27;;;19.23;;
8626;SDS011;4351;51.422;6.794;2022-12-17T16:05:42;37.17;;;18.07;;
8626;SDS011;4351;51.422;6.794;2022-12-17T16:08:09;38.47;;;19.13;;
8626;SDS011;4351;51.422;6.794;2022-12-17T16:10:37;43.80;;;20.47;;
8626;SDS011;4351;51.422;6.794;2022-12-17T16:13:06;39.63;;;19.33;;
8626;SDS011;4351;51.422;6.794;2022-12-17T16:15:34;36.10;;;19.57;;
8626;SDS011;4351;51.422;6.794;2022-12-17T16:18:02;37.20;;;18.63;;
8626;SDS011;4351;51.422;6.794;2022-12-17T16:20:30;39.83;;;18.87;;
8626;SDS011;4351;51.422;6.794;2022-12-17T16:22:59;37.70;;;18.70;;
8626;SDS011;4351;51.422;6.794;2022-12-17T16:25:27;34.77;;;18.33;;
8626;SDS011;4351;51.422;6.794;2022-12-17T16:27:55;36.33;;;18.43;;
8626;SDS011;4351;51.422;6.794;2022-12-17T16:30:24;33.83;;;17.57;;
8626;SDS011;4351;51.422;6.794;2022-12-17T16:32:52;39.23;;;19.17;;
8626;SDS011;4351;51.422;6.794;2022-12-17T16:35:20;36.20;;;18.73;;
8626;SDS011;4351;51.422;6.794;2022-12-17T16:37:49;36.83;;;18.90;;
8626;SDS011;4351;51.422;6.794;2022-12-17T16:40:18;36.50;;;19.03;;
8626;SDS011;4351;51.422;6.794;2022-12-17T16:42:46;42.13;;;20.47;;